Time;durP1;ratioP1;P1;durP2;ratioP2;P2;SDS_P1;SDS_P2;PMS_P1;PMS_P2;Temp;Humidity;BMP_temperature;BMP_pressure;BME280_temperature;BME280_humidity;BME280_pressure;Samples;Min_cycle;Max_cycle;Signal;HPM_P1;HPM_P2
2022/01/21 00:00:23;;;;;;;1.23;1.10;;;18.80;39.60;;;;;;5037111;28;20235;-68
2022/01/21 00:02:48;;;;;;;1.10;1.00;;;18.80;39.60;;;;;;5035808;28;20530;-68
2022/01/21 00:05:14;;;;;;;1.10;0.90;;;18.80;39.60;;;;;;5069699;28;20218;-68
2022/01/21 00:07:41;;;;;;;1.13;1.03;;;18.80;39.50;;;;;;5038982;28;20222;-68
2022/01/21 00:10:08;;;;;;;1.90;1.00;;;18.80;39.60;;;;;;5038550;28;20240;-68
2022/01/21 00:12:35;;;;;;;1.10;1.00;;;18.80;39.60;;;;;;5038840;28;21160;-68
2022/01/21 00:15:06;;;;;;;1.00;0.80;;;18.80;39.50;;;;;;5070829;28;20454;-68
2022/01/21 00:17:31;;;;;;;1.00;0.83;;;18.80;39.60;;;;;;5033784;28;20535;-68
2022/01/21 00:30:54;;;;;;;2.17;1.10;;;18.80;39.50;;;;;;5041825;28;20830;-68
2022/01/21 00:33:20;;;;;;;1.10;1.00;;;18.80;39.50;;;;;;5046124;28;20418;-68
2022/01/21 00:35:45;;;;;;;2.20;1.03;;;18.80;39.50;;;;;;5042624;28;20668;-68
2022/01/21 00:38:13;;;;;;;1.10;1.00;;;18.80;39.50;;;;;;5046222;28;20214;-68
2022/01/21 00:40:39;;;;;;;1.10;0.77;;;18.80;39.50;;;;;;5042603;28;20658;-68
2022/01/21 00:45:39;;;;;;;0.97;0.87;;;18.80;39.50;;;;;;5037823;28;20219;-68
2022/01/21 00:48:06;;;;;;;1.10;0.93;;;18.80;39.50;;;;;;5038871;28;20536;-68
2022/01/21 00:50:32;;;;;;;2.17;1.10;;;18.80;39.50;;;;;;5050199;28;20225;-68
2022/01/21 00:52:57;;;;;;;1.77;1.10;;;18.80;39.50;;;;;;5073561;28;20817;-68
2022/01/21 00:55:23;;;;;;;1.00;0.90;;;18.80;39.50;;;;;;5037084;28;20230;-68
2022/01/21 00:57:49;;;;;;;1.00;0.87;;;18.80;39.50;;;;;;5028279;28;20215;-68
2022/01/21 01:00:15;;;;;;;1.20;0.93;;;18.80;39.50;;;;;;5027179;28;20238;-68
2022/01/21 01:02:42;;;;;;;2.20;0.90;;;18.80;39.50;;;;;;5028681;28;20549;-68
2022/01/21 01:05:09;;;;;;;1.30;1.20;;;18.80;39.50;;;;;;5026856;28;20420;-68
2022/01/21 01:07:35;;;;;;;1.10;1.00;;;18.80;39.50;;;;;;5026316;28;20941;-68
2022/01/21 01:10:04;;;;;;;1.37;1.00;;;18.80;39.50;;;;;;5021792;28;20463;-68
2022/01/21 01:12:55;;;;;;;1.03;0.93;;;18.80;39.50;;;;;;5019440;28;20458;-68
2022/01/21 01:20:50;;;;;;;1.17;0.90;;;18.80;39.50;;;;;;5042602;28;20487;-68
2022/01/21 01:28:34;;;;;;;1.20;0.93;;;18.80;39.50;;;;;;5037680;28;20442;-68
2022/01/21 01:31:02;;;;;;;2.17;1.03;;;18.80;39.50;;;;;;5044516;28;20435;-68
2022/01/21 01:33:35;;;;;;;1.20;1.10;;;18.70;39.30;;;;;;5039471;28;20415;-68
2022/01/21 01:36:02;;;;;;;1.23;0.90;;;18.80;39.50;;;;;;5040124;28;20429;-68
2022/01/21 01:41:02;;;;;;;1.10;1.00;;;18.70;39.30;;;;;;5039679;28;20464;-68
2022/01/21 01:51:29;;;;;;;1.10;0.90;;;18.80;39.50;;;;;;5040202;28;20429;-68
2022/01/21 01:54:02;;;;;;;1.23;1.00;;;18.80;39.50;;;;;;5037373;28;20419;-68
2022/01/21 01:56:33;;;;;;;1.33;1.03;;;18.80;39.50;;;;;;5039137;28;20438;-68
2022/01/21 01:58:58;;;;;;;1.80;1.10;;;18.80;39.50;;;;;;5040140;28;20527;-69
2022/01/21 02:01:24;;;;;;;2.07;1.00;;;18.80;39.50;;;;;;5040302;28;20534;-68
2022/01/21 02:03:49;;;;;;;1.23;0.90;;;18.80;39.50;;;;;;5039777;28;20587;-68
2022/01/21 02:06:15;;;;;;;0.90;0.80;;;18.80;39.50;;;;;;5044011;28;20214;-69
2022/01/21 02:08:41;;;;;;;1.23;0.90;;;18.80;39.60;;;;;;5041912;28;20679;-69
2022/01/21 02:11:08;;;;;;;1.10;0.90;;;18.80;39.50;;;;;;5040690;28;20680;-69
2022/01/21 02:13:41;;;;;;;1.27;1.17;;;18.80;39.50;;;;;;5043110;28;20414;-69
2022/01/21 02:16:31;;;;;;;1.10;0.80;;;18.80;39.50;;;;;;5044449;28;20222;-68
2022/01/21 02:21:46;;;;;;;0.80;0.80;;;18.80;39.50;;;;;;5039031;28;20489;-68
2022/01/21 02:24:24;;;;;;;2.20;1.10;;;18.80;39.50;;;;;;5038299;28;20414;-68
2022/01/21 02:26:51;;;;;;;1.30;1.20;;;18.80;39.50;;;;;;5035851;28;20438;-69
2022/01/21 02:29:30;;;;;;;1.10;1.00;;;18.80;39.60;;;;;;5041229;28;20594;-69
2022/01/21 02:31:58;;;;;;;1.00;0.90;;;18.70;39.50;;;;;;5040454;28;20513;-69
2022/01/21 02:34:24;;;;;;;1.07;0.97;;;18.80;40.30;;;;;;5040143;28;20430;-69
2022/01/21 02:36:50;;;;;;;1.00;0.90;;;18.80;39.50;;;;;;5041291;28;20418;-69
2022/01/21 02:39:16;;;;;;;1.23;1.00;;;18.80;39.50;;;;;;5039406;28;20487;-69
2022/01/21 02:41:41;;;;;;;1.50;1.20;;;18.80;39.50;;;;;;5041870;28;20223;-69
2022/01/21 02:44:13;;;;;;;1.00;0.70;;;18.80;39.50;;;;;;5039417;28;20421;-69
2022/01/21 02:46:41;;;;;;;1.20;1.10;;;18.80;39.50;;;;;;5045386;28;20226;-69
2022/01/21 02:49:07;;;;;;;1.10;1.00;;;18.80;39.50;;;;;;5038933;28;20534;-69
2022/01/21 02:51:32;;;;;;;1.00;0.90;;;18.80;39.50;;;;;;5037990;28;20795;-69
2022/01/21 02:54:04;;;;;;;1.37;1.10;;;18.80;39.40;;;;;;5043241;28;20480;-69
2022/01/21 02:56:31;;;;;;;1.03;0.90;;;18.70;39.40;;;;;;5038778;28;20223;-69
2022/01/21 02:58:57;;;;;;;1.37;1.27;;;18.80;39.50;;;;;;5037570;28;20465;-70
2022/01/21 03:01:24;;;;;;;1.63;1.27;;;18.70;39.40;;;;;;5041634;28;20423;-70
2022/01/21 03:03:49;;;;;;;1.40;1.30;;;18.80;39.50;;;;;;5039517;28;20218;-70
2022/01/21 03:06:17;;;;;;;1.00;0.90;;;18.80;39.50;;;;;;5040966;28;20433;-70
2022/01/21 03:08:46;;;;;;;1.00;0.80;;;18.80;39.50;;;;;;5040320;28;20248;-70
2022/01/21 03:11:12;;;;;;;0.93;0.80;;;18.80;39.50;;;;;;5021960;28;20521;-70
2022/01/21 03:13:40;;;;;;;1.27;1.07;;;18.80;39.40;;;;;;5020983;28;20433;-70
2022/01/21 03:16:06;;;;;;;1.20;1.00;;;18.80;39.50;;;;;;5021446;28;20510;-69
2022/01/21 03:18:31;;;;;;;0.87;0.73;;;18.80;39.50;;;;;;5018822;28;20460;-70
2022/01/21 03:20:57;;;;;;;0.90;0.80;;;18.80;39.40;;;;;;5020873;28;20883;-70
2022/01/21 03:23:25;;;;;;;1.57;0.93;;;18.80;39.50;;;;;;5022213;28;20575;-70
2022/01/21 03:25:50;;;;;;;1.10;0.80;;;18.70;39.30;;;;;;5021129;28;20225;-70
2022/01/21 03:28:17;;;;;;;1.77;0.80;;;18.70;39.40;;;;;;5017143;28;20891;-70
2022/01/21 03:30:43;;;;;;;1.00;0.90;;;18.70;39.40;;;;;;5050831;28;20570;-70
2022/01/21 03:33:09;;;;;;;1.13;0.90;;;18.80;39.40;;;;;;5019570;28;20456;-70
2022/01/21 03:35:35;;;;;;;0.90;0.80;;;18.80;39.40;;;;;;5017684;28;20354;-70
2022/01/21 03:38:00;;;;;;;1.53;1.30;;;18.70;39.30;;;;;;5018898;28;20514;-70
2022/01/21 03:40:26;;;;;;;1.07;0.90;;;18.80;39.40;;;;;;5017430;28;20266;-70
2022/01/21 03:42:52;;;;;;;0.97;0.87;;;18.80;39.40;;;;;;5022078;28;20256;-70
2022/01/21 03:45:18;;;;;;;1.33;0.80;;;18.80;39.40;;;;;;5019093;28;20428;-70
2022/01/21 03:47:44;;;;;;;1.10;0.90;;;18.70;39.30;;;;;;5021709;28;20246;-70
2022/01/21 03:50:30;;;;;;;0.93;0.83;;;18.70;39.30;;;;;;5034495;28;20230;-70
2022/01/21 03:52:56;;;;;;;1.00;0.90;;;18.80;39.40;;;;;;5038690;28;20456;-70
2022/01/21 03:55:22;;;;;;;1.20;0.90;;;18.80;39.40;;;;;;5036811;28;20850;-70
2022/01/21 03:57:47;;;;;;;1.20;1.10;;;18.80;39.40;;;;;;5036591;28;20498;-70
2022/01/21 04:00:24;;;;;;;1.30;1.00;;;18.80;39.40;;;;;;5038900;28;20313;-70
2022/01/21 04:02:50;;;;;;;1.90;0.90;;;18.70;39.30;;;;;;5039645;28;20222;-70
2022/01/21 04:05:16;;;;;;;0.90;0.80;;;18.70;39.30;;;;;;5042835;28;20463;-71
2022/01/21 04:07:42;;;;;;;1.00;0.90;;;18.70;39.30;;;;;;5042667;28;20451;-70
2022/01/21 04:10:08;;;;;;;1.00;0.90;;;18.70;39.30;;;;;;5051151;28;20218;-70
2022/01/21 04:12:34;;;;;;;0.93;0.83;;;18.70;39.30;;;;;;5041902;28;20214;-70
2022/01/21 04:15:00;;;;;;;0.97;0.87;;;18.70;39.30;;;;;;5044250;28;20429;-70
2022/01/21 04:17:26;;;;;;;1.17;0.80;;;18.80;39.40;;;;;;5041646;28;20233;-70
2022/01/21 04:19:52;;;;;;;1.00;0.90;;;18.80;39.40;;;;;;5045814;28;20234;-69
2022/01/21 04:22:18;;;;;;;0.80;0.70;;;18.70;39.30;;;;;;5040121;28;20457;-71
2022/01/21 04:24:45;;;;;;;0.90;0.70;;;18.80;39.40;;;;;;5049649;28;20845;-71
2022/01/21 04:27:12;;;;;;;1.03;0.87;;;18.80;39.40;;;;;;5043979;28;20226;-71
2022/01/21 04:29:38;;;;;;;1.00;0.90;;;18.80;39.40;;;;;;5047816;28;20438;-70
2022/01/21 04:32:04;;;;;;;1.03;0.70;;;18.80;39.40;;;;;;5042729;28;20426;-70
2022/01/21 04:34:30;;;;;;;0.83;0.70;;;18.70;39.20;;;;;;5044270;28;20533;-70
2022/01/21 04:36:55;;;;;;;1.20;0.90;;;18.70;39.20;;;;;;5043738;28;20574;-70
2022/01/21 04:39:28;;;;;;;0.90;0.80;;;18.80;39.30;;;;;;5043825;28;20309;-71
2022/01/21 04:47:17;;;;;;;0.80;0.80;;;18.70;39.20;;;;;;5039194;28;20219;-71
2022/01/21 04:47:23;;;;;;;1.10;0.97;;;18.80;39.30;;;;;;5042626;28;20474;-70
2022/01/21 04:49:49;;;;;;;1.00;0.80;;;18.80;39.50;;;;;;5045168;28;20920;-71
2022/01/21 04:52:15;;;;;;;1.40;1.10;;;18.80;39.30;;;;;;5045528;28;20242;-71
2022/01/21 04:54:41;;;;;;;0.80;0.80;;;18.80;39.30;;;;;;5040550;28;20429;-71
2022/01/21 04:57:07;;;;;;;1.00;0.90;;;18.80;39.30;;;;;;5072800;28;20447;-71
2022/01/21 04:59:33;;;;;;;0.90;0.90;;;18.80;39.50;;;;;;5040854;28;20233;-71
2022/01/21 05:01:59;;;;;;;1.40;1.10;;;18.70;39.20;;;;;;5041682;28;20219;-71
2022/01/21 05:04:25;;;;;;;1.10;0.70;;;18.80;39.30;;;;;;5041754;28;20451;-71
2022/01/21 05:06:52;;;;;;;2.00;0.80;;;18.80;39.30;;;;;;5044305;28;20218;-71
2022/01/21 05:09:19;;;;;;;1.10;1.00;;;18.70;39.20;;;;;;5044052;28;20807;-72
2022/01/21 05:11:46;;;;;;;1.03;0.93;;;18.80;39.30;;;;;;5043348;28;20444;-72
2022/01/21 05:16:44;;;;;;;1.00;0.80;;;18.80;39.30;;;;;;5037151;28;20781;-71
2022/01/21 05:19:17;;;;;;;1.10;0.90;;;18.80;39.20;;;;;;5043510;28;20426;-71
2022/01/21 05:21:48;;;;;;;1.07;0.97;;;18.80;39.30;;;;;;5041126;28;20984;-70
2022/01/21 05:24:16;;;;;;;1.20;0.90;;;18.80;39.20;;;;;;5044381;28;20502;-71
2022/01/21 05:26:52;;;;;;;1.17;1.00;;;18.80;39.20;;;;;;5044001;28;20444;-71
2022/01/21 05:29:18;;;;;;;1.20;1.00;;;18.80;39.20;;;;;;5038475;28;20468;-70
2022/01/21 05:31:44;;;;;;;1.00;0.90;;;18.80;39.20;;;;;;5040066;28;20431;-71
2022/01/21 05:34:09;;;;;;;1.00;0.90;;;18.80;39.10;;;;;;5042366;28;20447;-70
2022/01/21 05:36:37;;;;;;;1.60;0.90;;;18.80;39.20;;;;;;5041385;28;20223;-70
2022/01/21 05:39:03;;;;;;;1.20;0.80;;;18.80;39.90;;;;;;5042018;28;20227;-70
2022/01/21 05:41:29;;;;;;;1.73;0.83;;;18.80;39.10;;;;;;5041700;28;20486;-70
2022/01/21 05:44:05;;;;;;;1.23;0.80;;;18.80;39.10;;;;;;5045604;28;20442;-70
2022/01/21 05:49:08;;;;;;;1.30;1.00;;;18.90;39.20;;;;;;5041877;28;20459;-73
2022/01/21 05:51:34;;;;;;;1.10;1.00;;;18.90;39.20;;;;;;5038808;28;20434;-71
2022/01/21 05:54:00;;;;;;;0.87;0.80;;;18.90;39.10;;;;;;5045176;28;20219;-72
2022/01/21 05:56:26;;;;;;;1.27;0.83;;;18.90;39.10;;;;;;5039259;28;21006;-69
2022/01/21 05:58:52;;;;;;;1.10;1.00;;;18.90;39.10;;;;;;5040416;28;20222;-69
2022/01/21 06:01:18;;;;;;;0.80;0.70;;;18.90;39.10;;;;;;5041836;28;20507;-71
2022/01/21 06:03:45;;;;;;;4.10;1.00;;;18.90;39.00;;;;;;5068904;28;20423;-72
2022/01/21 06:06:10;;;;;;;0.90;0.80;;;18.90;39.00;;;;;;5045243;28;20288;-70
2022/01/21 06:08:39;;;;;;;1.00;0.80;;;18.90;39.10;;;;;;5072867;28;20818;-70
2022/01/21 06:11:05;;;;;;;0.80;0.80;;;18.90;39.00;;;;;;5039616;28;20222;-69
2022/01/21 06:13:30;;;;;;;0.90;0.80;;;18.90;39.00;;;;;;5041282;28;20947;-70
2022/01/21 06:15:58;;;;;;;0.87;0.80;;;18.90;39.00;;;;;;5040621;28;20768;-70
2022/01/21 06:18:24;;;;;;;0.90;0.80;;;18.90;38.90;;;;;;5043158;28;20237;-70
2022/01/21 06:20:50;;;;;;;1.00;0.90;;;18.90;38.90;;;;;;5033079;28;20438;-70
2022/01/21 06:23:15;;;;;;;1.90;0.90;;;18.90;38.90;;;;;;5023375;28;20673;-70
2022/01/21 06:25:41;;;;;;;1.00;0.90;;;18.90;38.90;;;;;;5020961;28;20220;-71
2022/01/21 06:28:07;;;;;;;1.23;1.00;;;18.90;38.90;;;;;;5024465;28;20309;-70
2022/01/21 06:30:33;;;;;;;1.10;0.90;;;18.90;38.90;;;;;;5018498;28;20258;-75
2022/01/21 06:32:58;;;;;;;1.00;0.90;;;18.90;38.90;;;;;;5022238;28;20302;-72
2022/01/21 06:35:24;;;;;;;1.30;1.00;;;18.90;38.90;;;;;;5019137;28;20712;-72
2022/01/21 06:37:50;;;;;;;1.07;0.80;;;18.90;38.90;;;;;;5018683;28;20226;-72
2022/01/21 06:40:19;;;;;;;1.13;0.80;;;18.90;38.90;;;;;;5024267;28;20242;-69
2022/01/21 06:42:46;;;;;;;1.00;0.90;;;18.90;38.90;;;;;;5026835;28;20226;-69
2022/01/21 06:45:12;;;;;;;1.10;1.00;;;19.00;39.00;;;;;;5042033;28;20493;-69
2022/01/21 06:47:37;;;;;;;1.00;0.90;;;18.90;38.90;;;;;;5043653;28;20545;-69
2022/01/21 06:50:04;;;;;;;2.37;1.00;;;18.90;39.60;;;;;;5034476;28;20684;-70
2022/01/21 06:52:31;;;;;;;1.00;0.90;;;19.00;38.90;;;;;;5026582;28;20987;-69
2022/01/21 06:54:58;;;;;;;1.27;0.90;;;19.00;39.00;;;;;;5032999;28;20418;-73
2022/01/21 06:57:24;;;;;;;1.10;0.97;;;19.00;39.00;;;;;;5040693;28;20561;-73
2022/01/21 06:59:50;;;;;;;0.90;0.80;;;18.90;38.80;;;;;;5038098;28;20464;-74
2022/01/21 07:02:18;;;;;;;2.30;0.80;;;19.00;38.90;;;;;;5043428;28;20457;-74
2022/01/21 07:04:48;;;;;;;1.00;0.80;;;18.90;38.90;;;;;;5043661;28;20221;-74
2022/01/21 07:07:14;;;;;;;1.27;1.00;;;19.00;39.00;;;;;;5042245;28;20512;-67
2022/01/21 07:09:41;;;;;;;1.00;0.90;;;18.90;38.80;;;;;;5047634;28;20545;-69
2022/01/21 07:12:07;;;;;;;2.23;1.00;;;19.00;38.90;;;;;;5049784;28;20455;-68
2022/01/21 07:14:32;;;;;;;1.50;1.10;;;18.90;38.90;;;;;;5039366;28;20511;-75
2022/01/21 07:16:58;;;;;;;0.90;0.80;;;19.00;39.00;;;;;;5036592;28;20463;-77
2022/01/21 07:19:23;;;;;;;1.30;1.07;;;18.90;38.90;;;;;;5043948;28;20249;-71
2022/01/21 07:21:49;;;;;;;1.10;1.00;;;19.00;38.90;;;;;;5037956;28;20206;-70
2022/01/21 07:24:15;;;;;;;1.10;1.00;;;19.00;38.90;;;;;;5040081;28;20249;-71
2022/01/21 07:26:40;;;;;;;2.10;1.30;;;19.00;38.80;;;;;;5038228;28;20219;-70
2022/01/21 07:29:06;;;;;;;1.30;0.90;;;19.00;38.80;;;;;;5038142;28;20267;-70
2022/01/21 07:31:32;;;;;;;1.10;0.90;;;19.00;38.90;;;;;;5038795;28;20226;-69
2022/01/21 07:34:01;;;;;;;1.20;1.10;;;19.00;38.80;;;;;;5037493;28;20229;-70
2022/01/21 07:36:26;;;;;;;2.60;1.00;;;19.00;38.80;;;;;;5039760;28;20691;-69
2022/01/21 07:38:52;;;;;;;1.00;0.90;;;19.00;38.80;;;;;;5037495;28;20476;-70
2022/01/21 07:41:18;;;;;;;1.10;0.90;;;19.00;38.90;;;;;;5038644;28;20218;-69
2022/01/21 07:43:44;;;;;;;1.20;0.80;;;19.00;38.90;;;;;;5038960;28;20244;-70
2022/01/21 07:46:09;;;;;;;1.83;0.87;;;19.00;38.90;;;;;;5038457;28;20456;-69
2022/01/21 07:48:35;;;;;;;1.10;1.00;;;19.00;38.80;;;;;;5038255;28;20214;-69
2022/01/21 07:51:01;;;;;;;0.97;0.83;;;19.00;38.90;;;;;;5040346;28;20215;-69
2022/01/21 07:53:26;;;;;;;2.00;1.50;;;19.00;38.90;;;;;;5040580;28;20211;-69
2022/01/21 07:55:52;;;;;;;1.70;1.03;;;19.00;38.90;;;;;;5040785;28;20579;-69
2022/01/21 07:58:19;;;;;;;1.10;1.00;;;19.00;38.90;;;;;;5039930;28;20211;-69
2022/01/21 08:00:45;;;;;;;1.10;0.93;;;19.00;38.90;;;;;;5035535;28;20491;-71
2022/01/21 08:03:12;;;;;;;1.63;0.80;;;19.00;38.90;;;;;;5041422;28;20531;-70
2022/01/21 08:05:37;;;;;;;1.03;0.93;;;19.00;38.90;;;;;;5036468;28;20953;-68
2022/01/21 08:08:03;;;;;;;1.20;1.03;;;19.00;38.90;;;;;;5041674;28;20437;-68
2022/01/21 08:10:31;;;;;;;1.30;0.90;;;19.00;38.80;;;;;;5037237;28;20217;-68
2022/01/21 08:12:57;;;;;;;1.00;0.90;;;19.00;38.90;;;;;;5034094;28;20219;-68
2022/01/21 08:15:23;;;;;;;2.30;1.07;;;18.90;38.80;;;;;;5038739;28;20426;-67
2022/01/21 08:17:48;;;;;;;1.17;1.07;;;19.00;38.90;;;;;;5039335;28;20215;-67
2022/01/21 08:20:14;;;;;;;2.90;1.20;;;18.90;38.80;;;;;;5039729;28;20240;-69
2022/01/21 08:22:40;;;;;;;2.87;1.30;;;18.90;38.80;;;;;;5037948;28;20222;-67
2022/01/21 08:25:08;;;;;;;2.90;1.20;;;18.90;38.80;;;;;;5037225;28;20223;-68
2022/01/21 08:27:34;;;;;;;1.10;0.90;;;18.90;38.80;;;;;;5039987;28;23424;-68
2022/01/21 08:30:00;;;;;;;1.90;1.10;;;18.90;38.70;;;;;;5039402;28;20827;-68
2022/01/21 08:32:26;;;;;;;2.50;1.53;;;18.90;38.70;;;;;;5036689;28;20448;-68
2022/01/21 08:34:51;;;;;;;1.13;1.00;;;18.90;38.60;;;;;;5039522;28;20215;-68
2022/01/21 08:37:18;;;;;;;1.40;1.30;;;18.90;38.50;;;;;;5040603;28;20234;-69
2022/01/21 08:39:43;;;;;;;1.07;0.93;;;18.90;38.30;;;;;;5040503;28;20261;-68
2022/01/21 08:42:10;;;;;;;1.27;1.00;;;18.80;38.30;;;;;;5037708;28;20450;-68
2022/01/21 08:44:36;;;;;;;1.00;0.90;;;18.90;38.20;;;;;;5038804;28;20634;-73
2022/01/21 08:47:02;;;;;;;1.07;0.90;;;18.90;38.20;;;;;;5038356;28;21007;-68
2022/01/21 08:49:28;;;;;;;1.00;0.90;;;18.80;38.20;;;;;;5033941;28;20223;-69
2022/01/21 08:51:57;;;;;;;2.10;1.00;;;18.80;38.20;;;;;;5040267;28;20458;-68
2022/01/21 08:54:24;;;;;;;1.10;1.00;;;18.80;38.20;;;;;;5041669;28;20224;-68
2022/01/21 08:56:51;;;;;;;2.30;1.23;;;18.80;38.20;;;;;;5048797;28;20455;-68
2022/01/21 08:59:18;;;;;;;2.00;1.07;;;18.80;38.20;;;;;;5042582;28;20805;-68
2022/01/21 09:01:45;;;;;;;1.13;1.03;;;18.80;38.20;;;;;;5041744;28;20430;-68
2022/01/21 09:04:11;;;;;;;1.70;1.10;;;18.80;38.20;;;;;;5044921;28;20513;-68
2022/01/21 09:06:36;;;;;;;1.40;1.10;;;18.80;38.20;;;;;;5039356;28;20423;-68
2022/01/21 09:09:03;;;;;;;3.27;1.07;;;18.80;38.20;;;;;;5039480;28;20429;-68
2022/01/21 09:11:28;;;;;;;2.17;0.90;;;18.80;38.90;;;;;;5041521;28;20634;-66
2022/01/21 09:13:55;;;;;;;2.80;1.30;;;18.70;38.10;;;;;;5047418;28;20534;-67
2022/01/21 09:16:20;;;;;;;2.90;1.00;;;18.70;38.10;;;;;;5046511;28;20233;-67
2022/01/21 09:18:49;;;;;;;1.60;1.10;;;18.80;38.20;;;;;;5040127;28;20444;-67
2022/01/21 09:21:18;;;;;;;1.83;1.20;;;18.80;39.00;;;;;;5044071;28;20308;-67
2022/01/21 09:23:47;;;;;;;1.23;1.03;;;18.80;38.20;;;;;;5040688;28;20904;-66
2022/01/21 09:26:14;;;;;;;1.63;1.40;;;18.80;38.20;;;;;;5040056;28;20504;-66
2022/01/21 09:28:40;;;;;;;1.30;1.20;;;18.80;38.20;;;;;;5039818;28;20467;-66
2022/01/21 09:31:05;;;;;;;1.33;1.23;;;18.80;38.20;;;;;;5040411;28;20844;-66
2022/01/21 09:33:31;;;;;;;1.33;1.20;;;18.70;38.10;;;;;;5044692;28;20584;-66
2022/01/21 09:35:57;;;;;;;1.83;1.20;;;18.70;38.10;;;;;;5041876;28;20687;-66
2022/01/21 09:38:24;;;;;;;1.30;1.20;;;18.70;38.10;;;;;;5042280;28;20342;-67
2022/01/21 09:40:51;;;;;;;2.23;1.07;;;18.70;38.10;;;;;;5040713;28;20438;-66
2022/01/21 09:43:17;;;;;;;2.37;1.20;;;18.80;38.20;;;;;;5042841;28;20440;-67
2022/01/21 09:45:52;;;;;;;1.73;1.20;;;18.70;38.10;;;;;;5040914;28;20447;-66
2022/01/21 09:48:24;;;;;;;2.20;1.10;;;18.70;38.10;;;;;;5047549;28;20905;-67
2022/01/21 09:50:55;;;;;;;1.23;1.13;;;18.70;38.10;;;;;;5044808;28;20454;-66
2022/01/21 09:53:29;;;;;;;1.77;1.07;;;18.70;38.10;;;;;;5042423;28;20418;-66
2022/01/21 09:55:57;;;;;;;1.00;0.83;;;18.70;38.10;;;;;;5044655;28;20422;-66
2022/01/21 09:58:23;;;;;;;1.57;1.00;;;18.70;38.10;;;;;;5038789;28;20822;-66
2022/01/21 10:00:50;;;;;;;1.47;1.00;;;18.70;38.10;;;;;;5043482;28;20479;-66
2022/01/21 10:03:16;;;;;;;2.80;1.47;;;18.70;38.10;;;;;;5044394;28;20419;-67
2022/01/21 10:05:47;;;;;;;1.10;1.00;;;18.70;38.10;;;;;;5037265;28;21165;-66
2022/01/21 10:08:14;;;;;;;1.27;1.17;;;18.70;38.10;;;;;;5041186;28;20226;-66
2022/01/21 10:10:42;;;;;;;2.33;1.20;;;18.70;38.10;;;;;;5040957;28;20962;-66
2022/01/21 10:13:08;;;;;;;1.10;0.90;;;18.70;38.10;;;;;;5037633;28;20455;-66
2022/01/21 10:15:36;;;;;;;1.67;1.20;;;18.70;38.10;;;;;;5041207;28;20447;-66
2022/01/21 10:18:12;;;;;;;3.90;1.57;;;18.70;38.80;;;;;;5036862;28;20492;-66
2022/01/21 10:20:55;;;;;;;1.40;1.30;;;18.70;38.10;;;;;;5038653;28;20477;-66
2022/01/21 10:23:20;;;;;;;0.80;0.80;;;18.70;38.10;;;;;;5038430;28;20811;-66
2022/01/21 10:26:01;;;;;;;1.97;1.33;;;18.70;38.10;;;;;;5038352;28;20452;-66
2022/01/21 10:28:27;;;;;;;1.13;1.00;;;18.70;38.10;;;;;;5040472;28;20234;-66
2022/01/21 10:31:05;;;;;;;1.40;1.30;;;18.60;38.00;;;;;;5042378;28;20426;-66
2022/01/21 10:33:31;;;;;;;1.20;1.10;;;18.60;38.00;;;;;;5044159;28;20426;-66
2022/01/21 10:36:16;;;;;;;1.30;1.20;;;18.60;38.00;;;;;;5036867;28;20444;-66
2022/01/21 10:38:45;;;;;;;1.10;1.00;;;18.60;38.00;;;;;;5042260;28;20229;-66
2022/01/21 10:41:14;;;;;;;9.40;1.50;;;18.60;38.00;;;;;;5036709;28;20468;-66
2022/01/21 10:43:40;;;;;;;2.10;1.00;;;18.60;38.00;;;;;;5044958;28;20443;-66
2022/01/21 10:46:06;;;;;;;1.13;1.03;;;18.60;38.00;;;;;;5042537;28;20414;-66
2022/01/21 10:48:56;;;;;;;1.27;1.17;;;18.60;38.00;;;;;;5041526;28;20676;-66
2022/01/21 10:51:25;;;;;;;1.17;1.07;;;18.60;38.00;;;;;;5039069;28;20431;-66
2022/01/21 10:53:56;;;;;;;1.43;1.33;;;18.60;38.00;;;;;;5039291;28;20491;-67
2022/01/21 10:56:23;;;;;;;1.03;0.93;;;18.60;38.00;;;;;;5038750;28;20449;-66
2022/01/21 10:58:54;;;;;;;1.67;1.10;;;18.60;38.00;;;;;;5040180;28;20418;-66
2022/01/21 11:01:27;;;;;;;1.40;1.00;;;18.60;38.00;;;;;;5039928;28;20504;-67
2022/01/21 11:04:07;;;;;;;1.13;1.03;;;18.60;38.00;;;;;;5034029;28;20753;-66
2022/01/21 11:06:44;;;;;;;1.17;1.00;;;18.60;38.00;;;;;;5039333;28;20431;-66
2022/01/21 11:09:18;;;;;;;1.90;1.20;;;18.60;38.00;;;;;;5038774;28;20530;-66
2022/01/21 11:11:46;;;;;;;1.27;1.00;;;18.60;38.00;;;;;;5038417;28;20453;-70
2022/01/21 11:14:18;;;;;;;1.23;0.90;;;18.60;38.00;;;;;;5035511;28;20430;-72
2022/01/21 11:16:46;;;;;;;1.03;0.90;;;18.60;38.00;;;;;;5038978;28;20547;-66
2022/01/21 11:19:16;;;;;;;1.30;1.20;;;18.60;38.00;;;;;;5038438;28;20468;-74
2022/01/21 11:21:52;;;;;;;1.00;0.90;;;18.60;38.00;;;;;;5042019;28;20431;-73
2022/01/21 11:24:21;;;;;;;1.23;1.10;;;18.60;38.00;;;;;;5040418;28;20451;-77
2022/01/21 11:27:10;;;;;;;3.03;1.00;;;18.60;38.00;;;;;;5044012;28;20853;-72
2022/01/21 11:29:36;;;;;;;0.93;0.93;;;18.60;38.00;;;;;;5054276;28;20956;-71
2022/01/21 11:32:03;;;;;;;3.80;1.20;;;18.60;38.00;;;;;;5039098;28;20448;-71
2022/01/21 11:34:30;;;;;;;1.00;0.90;;;18.60;38.00;;;;;;5042159;28;20210;-71
2022/01/21 11:36:56;;;;;;;1.33;1.03;;;18.60;38.00;;;;;;5048602;28;20441;-71
2022/01/21 11:39:24;;;;;;;1.50;1.27;;;18.60;38.00;;;;;;5041789;28;20499;-74
2022/01/21 11:41:53;;;;;;;1.37;1.27;;;18.60;38.00;;;;;;5043832;28;20418;-72
2022/01/21 11:44:21;;;;;;;1.63;0.80;;;18.60;38.00;;;;;;5039381;28;20806;-71
2022/01/21 11:47:15;;;;;;;1.20;0.90;;;18.60;38.00;;;;;;5038334;28;20444;-71
2022/01/21 11:49:54;;;;;;;1.10;0.90;;;18.60;38.00;;;;;;5039388;28;20425;-71
2022/01/21 11:52:21;;;;;;;1.20;1.10;;;18.50;37.90;;;;;;5037426;28;20968;-65
2022/01/21 11:54:48;;;;;;;0.90;0.90;;;18.50;37.90;;;;;;5037486;28;20452;-70
2022/01/21 11:57:15;;;;;;;1.10;1.00;;;18.50;38.00;;;;;;5038519;28;20447;-70
2022/01/21 11:59:51;;;;;;;1.30;1.20;;;18.50;37.90;;;;;;5038366;28;20480;-69
2022/01/21 12:02:29;;;;;;;1.00;0.90;;;18.50;37.90;;;;;;5038847;28;20451;-70
2022/01/21 12:05:29;;;;;;;1.10;1.00;;;18.50;37.90;;;;;;5039130;28;20827;-70
2022/01/21 12:07:55;;;;;;;1.00;0.90;;;18.50;38.00;;;;;;5039348;28;20522;-69
2022/01/21 12:10:25;;;;;;;1.30;1.00;;;18.50;37.90;;;;;;5033320;28;20882;-69
2022/01/21 12:13:01;;;;;;;1.10;1.00;;;18.50;37.90;;;;;;5042007;28;20214;-70
2022/01/21 12:21:04;;;;;;;1.53;1.00;;;18.50;37.90;;;;;;5038428;28;20438;-69
2022/01/21 12:23:30;;;;;;;1.50;1.10;;;18.50;37.90;;;;;;5037850;28;20487;-70
2022/01/21 12:26:17;;;;;;;1.10;0.90;;;18.50;37.90;;;;;;5041661;28;20524;-70
2022/01/21 12:28:46;;;;;;;1.07;0.97;;;18.50;37.90;;;;;;5021260;28;20553;-70
2022/01/21 12:31:14;;;;;;;1.00;0.90;;;18.50;37.90;;;;;;5034997;28;20497;-70
2022/01/21 12:34:05;;;;;;;1.63;0.90;;;18.50;37.90;;;;;;5041224;28;20471;-70
2022/01/21 12:36:35;;;;;;;1.33;0.97;;;18.50;37.90;;;;;;5041391;28;20492;-70
2022/01/21 12:41:39;;;;;;;2.43;1.10;;;18.50;38.10;;;;;;5037315;28;20443;-70
2022/01/21 12:44:07;;;;;;;1.13;1.03;;;18.50;38.00;;;;;;5041018;28;20443;-70
2022/01/21 12:46:42;;;;;;;1.47;1.30;;;18.50;38.00;;;;;;5041955;28;20485;-69
2022/01/21 12:49:26;;;;;;;1.17;1.07;;;18.50;37.90;;;;;;5041068;28;20424;-73
2022/01/21 12:52:10;;;;;;;1.10;0.93;;;18.50;37.90;;;;;;5046989;28;20818;-74
2022/01/21 12:57:30;;;;;;;1.30;1.20;;;18.50;38.00;;;;;;5039175;28;20554;-71
2022/01/21 13:00:07;;;;;;;0.97;0.80;;;18.50;38.20;;;;;;5044674;28;20484;-71
2022/01/21 13:02:33;;;;;;;0.90;0.80;;;18.50;38.20;;;;;;5042310;28;20459;-70
2022/01/21 13:05:37;;;;;;;1.20;1.00;;;18.50;38.20;;;;;;5044066;28;20430;-70
2022/01/21 13:08:37;;;;;;;0.93;0.93;;;18.50;38.20;;;;;;5024496;28;20910;-70
2022/01/21 13:11:16;;;;;;;1.03;0.93;;;18.50;38.20;;;;;;5041682;28;20826;-70
2022/01/21 13:13:52;;;;;;;1.40;0.90;;;18.50;38.20;;;;;;5043167;28;20429;-70
2022/01/21 13:16:32;;;;;;;1.37;1.07;;;18.50;38.30;;;;;;5037953;28;20450;-70
2022/01/21 13:19:00;;;;;;;1.70;0.93;;;18.40;38.20;;;;;;5039898;28;20448;-69
2022/01/21 13:21:26;;;;;;;1.00;0.90;;;18.50;38.40;;;;;;5041007;28;20506;-70
2022/01/21 13:23:56;;;;;;;1.13;1.00;;;18.50;38.30;;;;;;5042604;28;20418;-69
2022/01/21 13:26:24;;;;;;;1.13;1.03;;;18.40;38.20;;;;;;5040661;28;20230;-69
2022/01/21 13:29:02;;;;;;;1.07;0.97;;;18.50;38.40;;;;;;5040862;28;20496;-70
2022/01/21 13:31:31;;;;;;;1.00;0.90;;;18.50;38.40;;;;;;5038171;28;20423;-70
2022/01/21 13:34:18;;;;;;;1.40;1.00;;;18.40;38.20;;;;;;5039708;28;20460;-69
2022/01/21 13:36:45;;;;;;;1.10;0.90;;;18.40;38.30;;;;;;5039303;28;20830;-69
2022/01/21 13:39:17;;;;;;;2.10;1.00;;;18.40;38.30;;;;;;5041067;28;20910;-69
2022/01/21 13:41:46;;;;;;;3.63;1.10;;;18.40;38.30;;;;;;5045465;28;20450;-69
2022/01/21 13:44:12;;;;;;;1.10;1.00;;;18.40;38.30;;;;;;5039894;28;20448;-68
2022/01/21 13:46:39;;;;;;;2.10;0.90;;;18.40;38.30;;;;;;5046627;28;20511;-71
2022/01/21 13:49:05;;;;;;;1.20;0.90;;;18.40;38.30;;;;;;5037365;28;20254;-70
2022/01/21 13:51:31;;;;;;;2.40;1.00;;;18.50;38.40;;;;;;5040346;28;20442;-70